Time;durP1;ratioP1;P1;durP2;ratioP2;P2;SDS_P1;SDS_P2;PMS_P1;PMS_P2;Temp;Humidity;BMP_temperature;BMP_pressure;BME280_temperature;BME280_humidity;BME280_pressure;Samples;Min_cycle;Max_cycle;Signal;HPM_P1;HPM_P2
2022/10/13 00:01:17;;;;;;;;;14.67;13.33;;;;;17.00;57.16;101629.66;5074938;28;45398;-68
2022/10/13 00:03:46;;;;;;;;;15.67;14.33;;;;;17.00;57.41;101632.31;5076733;28;45689;-68
2022/10/13 00:06:14;;;;;;;;;15.67;14.00;;;;;16.99;57.82;101631.44;5065443;27;45393;-68
2022/10/13 00:08:40;;;;;;;;;23.00;17.67;;;;;16.89;57.98;101622.69;5078919;28;45279;-67
2022/10/13 00:11:12;;;;;;;;;24.00;22.00;;;;;16.77;58.70;101620.13;5079089;27;45516;-68
2022/10/13 00:13:38;;;;;;;;;25.67;21.67;;;;;16.62;58.75;101604.41;5078917;27;45715;-68
2022/10/13 00:16:04;;;;;;;;;23.00;21.33;;;;;16.64;58.96;101624.66;5089482;27;45480;-67
2022/10/13 00:18:29;;;;;;;;;29.50;22.50;;;;;16.60;59.29;101622.94;5074632;27;45893;-67
2022/10/13 00:20:55;;;;;;;;;25.67;22.00;;;;;16.50;59.24;101605.41;5074445;27;45402;-67
2022/10/13 00:23:20;;;;;;;;;20.00;18.00;;;;;16.67;59.26;101634.34;5087111;27;45505;-67
2022/10/13 00:25:47;;;;;;;;;23.33;18.33;;;;;16.66;58.90;101622.91;5073470;27;45806;-67
2022/10/13 00:28:16;;;;;;;;;19.00;18.33;;;;;16.75;58.90;101628.09;5075655;27;46184;-67
2022/10/13 00:30:42;;;;;;;;;15.33;15.00;;;;;16.77;58.61;101624.56;5077025;27;45413;-67
2022/10/13 00:33:09;;;;;;;;;18.00;17.67;;;;;16.82;58.88;101614.84;5072827;27;45659;-68
2022/10/13 00:35:42;;;;;;;;;18.00;11.67;;;;;16.81;58.87;101613.97;5074380;27;45942;-68
2022/10/13 00:38:09;;;;;;;;;13.33;10.67;;;;;16.79;58.59;101591.94;5065712;27;46040;-67
2022/10/13 00:40:42;;;;;;;;;14.67;12.67;;;;;16.85;58.09;101597.19;5071367;28;45388;-67
2022/10/13 00:43:16;;;;;;;;;19.33;14.00;;;;;16.93;58.40;101602.38;5074262;28;45436;-67
2022/10/13 00:45:42;;;;;;;;;18.33;14.00;;;;;16.90;58.25;101595.34;5072664;27;45472;-67
2022/10/13 00:48:07;;;;;;;;;11.67;10.67;;;;;16.78;57.91;101576.94;5077181;28;46086;-66
2022/10/13 00:50:38;;;;;;;;;16.33;13.00;;;;;16.91;57.99;101589.16;5078463;28;45790;-68
2022/10/13 00:53:05;;;;;;;;;13.67;13.33;;;;;16.94;57.98;101580.31;5079097;28;45447;-68
2022/10/13 00:55:34;;;;;;;;;18.33;16.00;;;;;16.75;58.26;101569.00;5077215;28;45444;-67
2022/10/13 00:58:03;;;;;;;;;19.67;14.67;;;;;16.72;59.04;101587.56;5072761;28;46990;-67
2022/10/13 01:00:30;;;;;;;;;19.67;15.00;;;;;16.70;58.81;101591.97;5073967;27;45417;-67
2022/10/13 01:02:56;;;;;;;;;17.67;15.67;;;;;16.68;58.56;101585.81;5073966;28;45615;-67
2022/10/13 01:05:23;;;;;;;;;16.00;16.00;;;;;16.67;58.63;101584.97;5073023;27;45512;-66
2022/10/13 01:07:50;;;;;;;;;18.00;16.00;;;;;16.60;58.96;101585.91;5073480;28;45358;-68
2022/10/13 01:10:28;;;;;;;;;26.33;19.67;;;;;16.49;59.12;101593.97;5073691;27;45427;-67
2022/10/13 01:13:10;;;;;;;;;21.33;18.00;;;;;16.42;59.81;101605.47;5078550;27;45524;-70
2022/10/13 01:15:51;;;;;;;;;18.00;16.00;;;;;16.44;59.96;101601.03;5073509;27;45624;-67
2022/10/13 01:19:07;;;;;;;;;25.67;19.00;;;;;16.41;59.99;101590.47;5074294;27;46091;-67
2022/10/13 01:22:00;;;;;;;;;22.33;18.33;;;;;16.33;60.50;101584.41;5038890;28;45523;-68
2022/10/13 01:24:31;;;;;;;;;22.00;21.50;;;;;16.29;60.76;101574.72;5074096;27;45557;-67
2022/10/13 01:27:22;;;;;;;;;20.00;16.67;;;;;16.28;60.74;101591.50;5073742;27;45560;-68
2022/10/13 01:30:05;;;;;;;;;22.33;18.67;;;;;16.32;60.34;101596.75;5057261;27;45564;-65
2022/10/13 01:32:35;;;;;;;;;23.50;19.50;;;;;16.24;60.67;101584.47;5060732;27;45382;-67
2022/10/13 01:35:18;;;;;;;;;18.33;17.00;;;;;16.26;60.61;101582.69;5072277;28;45641;-66
2022/10/13 01:37:43;;;;;;;;;25.00;21.67;;;;;16.17;61.38;101574.84;5075527;28;45461;-66
2022/10/13 01:40:22;;;;;;;;;23.00;19.00;;;;;16.11;61.36;101579.28;5069731;28;47502;-66
2022/10/13 01:43:03;;;;;;;;;26.75;21.25;;;;;16.11;61.46;101578.38;5066246;28;45488;-68
2022/10/13 01:45:34;;;;;;;;;27.75;21.75;;;;;15.97;61.96;101557.38;5071988;28;45484;-67
2022/10/13 01:48:02;;;;;;;;;27.25;21.25;;;;;15.92;61.97;101569.72;5074221;27;45663;-67
2022/10/13 01:50:28;;;;;;;;;28.25;23.00;;;;;15.97;61.66;101575.88;5093071;27;46962;-67
2022/10/13 01:52:57;;;;;;;;;21.25;19.50;;;;;15.90;61.66;101567.09;5073129;28;45347;-68
2022/10/13 01:55:22;;;;;;;;;23.00;16.67;;;;;15.94;62.07;101578.50;5072534;28;45381;-67
2022/10/13 01:57:48;;;;;;;;;22.25;20.25;;;;;15.97;61.96;101582.88;5063333;28;45843;-68
2022/10/13 02:00:17;;;;;;;;;27.00;20.67;;;;;15.97;62.00;101560.00;5054787;28;45315;-67
2022/10/13 02:03:00;;;;;;;;;27.75;22.00;;;;;15.99;62.08;101563.53;5073030;28;45536;-67
2022/10/13 02:05:54;;;;;;;;;23.00;17.00;;;;;16.02;61.95;101571.44;5072526;28;45777;-66
2022/10/13 02:08:43;;;;;;;;;15.00;14.67;;;;;16.14;61.38;101572.22;5072530;28;45274;-70
2022/10/13 02:11:18;;;;;;;;;17.67;17.00;;;;;16.22;61.22;101565.97;5075060;28;46287;-66
2022/10/13 02:14:08;;;;;;;;;20.33;15.33;;;;;16.25;61.57;101557.13;5077385;28;45219;-68
2022/10/13 02:16:39;;;;;;;;;19.67;17.67;;;;;16.08;61.55;101544.94;5076978;28;45491;-68
2022/10/13 02:19:07;;;;;;;;;15.33;15.33;;;;;16.18;61.15;101552.78;5077623;28;45650;-68
2022/10/13 02:21:34;;;;;;;;;16.67;15.67;;;;;16.25;61.48;101558.03;5074915;28;46774;-66
2022/10/13 02:24:00;;;;;;;;;20.67;15.33;;;;;16.31;61.27;101549.16;5072477;28;45702;-69
2022/10/13 02:26:26;;;;;;;;;19.67;13.33;;;;;16.30;61.08;101542.09;5076232;28;45471;-66
2022/10/13 02:28:52;;;;;;;;;16.33;13.00;;;;;16.43;61.15;101543.75;5077537;27;45496;-67
2022/10/13 02:31:17;;;;;;;;;14.00;11.33;;;;;16.37;60.84;101520.00;5074902;28;46252;-67
2022/10/13 02:33:43;;;;;;;;;14.67;12.00;;;;;16.40;60.68;101533.22;5077832;28;45416;-66
2022/10/13 02:36:08;;;;;;;;;17.33;13.67;;;;;16.32;61.04;101524.47;5076617;28;45485;-65
2022/10/13 02:38:34;;;;;;;;;13.67;13.67;;;;;16.39;61.06;101539.38;5076427;28;45549;-66
2022/10/13 02:41:01;;;;;;;;;17.33;11.33;;;;;16.43;60.48;101527.03;5077521;28;47948;-66
2022/10/13 02:43:27;;;;;;;;;13.00;10.33;;;;;16.50;60.79;101520.78;5074827;28;45390;-68
2022/10/13 02:45:53;;;;;;;;;13.67;12.00;;;;;16.57;60.67;101521.59;5076331;28;45479;-66
2022/10/13 02:48:18;;;;;;;;;12.33;9.00;;;;;16.55;60.92;101521.63;5076522;28;45434;-66
2022/10/13 02:50:45;;;;;;;;;16.33;14.33;;;;;16.41;61.43;101502.38;5078351;28;45479;-66
2022/10/13 02:53:11;;;;;;;;;13.67;11.00;;;;;16.40;61.67;101498.00;5080209;28;45499;-66
2022/10/13 02:55:36;;;;;;;;;15.67;14.00;;;;;16.28;61.71;101483.13;5074600;28;45602;-67
2022/10/13 02:58:02;;;;;;;;;16.00;14.67;;;;;16.28;61.89;101502.50;5076486;28;45522;-67
2022/10/13 03:00:27;;;;;;;;;17.33;13.67;;;;;16.19;62.37;101504.34;5078600;28;45968;-66
2022/10/13 03:02:53;;;;;;;;;20.67;18.67;;;;;16.00;62.78;101491.28;5076245;28;45738;-68
2022/10/13 03:05:19;;;;;;;;;18.67;16.33;;;;;16.06;63.03;101520.31;5076723;28;45706;-67
2022/10/13 03:07:44;;;;;;;;;19.33;18.33;;;;;16.04;62.77;101518.53;5080626;28;45516;-68
2022/10/13 03:10:10;;;;;;;;;28.67;20.33;;;;;15.91;63.18;101515.13;5076455;28;45979;-68
2022/10/13 03:12:35;;;;;;;;;21.67;18.00;;;;;15.91;63.32;101509.84;5076273;27;45698;-67
2022/10/13 03:15:01;;;;;;;;;23.00;18.00;;;;;15.87;63.34;101509.00;5080449;27;45437;-67
2022/10/13 03:17:27;;;;;;;;;23.00;21.00;;;;;15.82;63.47;101515.19;5080667;28;45988;-70
2022/10/13 03:19:53;;;;;;;;;17.33;16.67;;;;;15.73;63.68;101500.31;5110609;27;46406;-69
2022/10/13 03:22:19;;;;;;;;;25.67;23.00;;;;;15.79;63.99;101504.66;5075521;27;45777;-69
2022/10/13 03:24:44;;;;;;;;;19.67;18.33;;;;;15.69;64.24;101502.06;5075407;28;45382;-66
2022/10/13 03:27:10;;;;;;;;;24.33;20.00;;;;;15.64;64.74;101500.34;5076215;27;45492;-67
2022/10/13 03:29:36;;;;;;;;;17.67;15.33;;;;;15.59;64.39;101497.72;5070653;28;46327;-67
2022/10/13 03:32:01;;;;;;;;;20.00;18.67;;;;;15.50;64.63;101465.22;5065609;28;45482;-66
2022/10/13 03:34:27;;;;;;;;;22.75;20.00;;;;;15.59;64.43;101476.59;5077942;28;45479;-66
2022/10/13 03:36:52;;;;;;;;;23.33;17.67;;;;;15.54;64.21;101473.13;5078459;28;45850;-66
2022/10/13 03:39:18;;;;;;;;;17.33;15.33;;;;;15.64;64.35;101489.78;5077701;28;46893;-66
2022/10/13 03:41:44;;;;;;;;;15.33;15.00;;;;;15.69;64.29;101488.84;5059137;27;45343;-68
2022/10/13 03:44:12;;;;;;;;;19.67;15.67;;;;;15.71;64.20;101490.63;5054950;27;45306;-65
2022/10/13 03:46:38;;;;;;;;;16.33;15.33;;;;;15.61;64.64;101474.84;5056348;27;45329;-67
2022/10/13 03:49:04;;;;;;;;;25.25;16.75;;;;;15.61;64.67;101481.84;5059180;28;45267;-68
2022/10/13 03:51:30;;;;;;;;;21.00;20.25;;;;;15.47;65.19;101472.28;5070962;27;45298;-69
2022/10/13 03:53:56;;;;;;;;;27.75;20.00;;;;;15.36;65.77;101481.16;5058940;27;45274;-68
2022/10/13 03:56:24;;;;;;;;;19.67;17.33;;;;;15.34;65.74;101457.41;5054940;27;45677;-67
2022/10/13 03:58:55;;;;;;;;;21.33;21.33;;;;;15.27;66.12;101453.91;5055136;27;45453;-68
2022/10/13 04:01:23;;;;;;;;;21.25;20.00;;;;;15.19;66.49;101455.72;5056104;27;45360;-66
2022/10/13 04:03:50;;;;;;;;;21.50;20.25;;;;;15.15;66.74;101458.41;5056258;27;45421;-68
2022/10/13 04:06:16;;;;;;;;;16.00;10.25;;;;;15.08;66.72;101462.81;5064420;27;45451;-66
2022/10/13 04:08:42;;;;;;;;;23.75;20.75;;;;;15.11;66.84;101472.47;5060477;27;46137;-67
2022/10/13 04:11:11;;;;;;;;;22.00;18.67;;;;;15.03;67.25;101464.59;5057353;27;45441;-67
2022/10/13 04:13:36;;;;;;;;;21.75;20.50;;;;;14.99;67.27;101449.66;5054407;27;45355;-66
2022/10/13 04:16:06;;;;;;;;;22.00;18.75;;;;;15.02;67.08;101455.81;5071938;28;45311;-66
2022/10/13 04:18:32;;;;;;;;;21.50;17.25;;;;;15.05;66.83;101445.25;5059929;27;46280;-65
2022/10/13 04:20:58;;;;;;;;;19.25;17.00;;;;;14.91;67.21;101431.25;5060271;27;45567;-66
2022/10/13 04:23:23;;;;;;;;;24.50;21.00;;;;;14.93;67.13;101458.50;5084556;27;45460;-66
2022/10/13 04:25:49;;;;;;;;;18.67;16.33;;;;;15.08;66.80;101473.38;5054711;27;45557;-66
2022/10/13 04:28:15;;;;;;;;;17.67;14.00;;;;;15.13;66.77;101458.41;5057954;27;46092;-66
2022/10/13 04:30:41;;;;;;;;;20.00;20.00;;;;;15.24;66.47;101466.25;5071882;28;45254;-65
2022/10/13 04:33:07;;;;;;;;;21.75;20.00;;;;;15.25;66.68;101465.38;5074301;28;45288;-68
2022/10/13 04:35:32;;;;;;;;;20.25;16.75;;;;;15.14;66.44;101460.16;5074411;28;45468;-67
2022/10/13 04:37:58;;;;;;;;;19.00;14.67;;;;;15.23;66.60;101462.75;5073644;28;46017;-67
2022/10/13 04:40:24;;;;;;;;;17.67;17.67;;;;;15.27;66.31;101468.88;5072935;28;45480;-68
2022/10/13 04:42:50;;;;;;;;;19.50;14.50;;;;;15.31;65.78;101457.44;5076369;27;45719;-66
2022/10/13 04:45:16;;;;;;;;;16.00;14.33;;;;;15.35;65.82;101459.16;5078916;28;45447;-67
2022/10/13 04:47:42;;;;;;;;;13.00;13.00;;;;;15.41;65.25;101467.03;5078819;27;45507;-66
2022/10/13 04:50:08;;;;;;;;;14.33;14.00;;;;;15.56;65.11;101473.97;5078046;27;45390;-67
2022/10/13 04:52:35;;;;;;;;;17.00;15.67;;;;;15.52;65.48;101464.34;5073911;28;45473;-66
2022/10/13 04:55:01;;;;;;;;;22.33;17.00;;;;;15.50;65.51;101463.47;5072502;28;45446;-66
2022/10/13 04:57:26;;;;;;;;;16.67;14.00;;;;;15.50;65.30;101457.31;5072583;28;47811;-67
2022/10/13 04:59:52;;;;;;;;;17.67;14.67;;;;;15.50;64.95;101460.81;5088407;27;46008;-67
2022/10/13 05:02:18;;;;;;;;;14.00;12.67;;;;;15.53;65.01;101459.94;5072757;28;45795;-66
2022/10/13 05:04:43;;;;;;;;;16.00;14.33;;;;;15.71;64.77;101466.84;5078170;28;45463;-67
2022/10/13 05:07:09;;;;;;;;;14.33;12.67;;;;;15.67;64.57;101444.84;5078448;27;46832;-68
2022/10/13 05:09:35;;;;;;;;;15.00;13.33;;;;;15.67;64.50;101445.72;5078512;27;45474;-67
2022/10/13 05:12:00;;;;;;;;;14.33;12.67;;;;;15.73;64.60;101441.31;5078334;28;45492;-67
2022/10/13 05:14:26;;;;;;;;;14.33;13.33;;;;;15.63;64.28;101428.13;5076800;28;45599;-66
2022/10/13 05:16:52;;;;;;;;;17.67;13.00;;;;;15.72;64.68;101444.84;5071442;27;46599;-67
2022/10/13 05:19:18;;;;;;;;;15.67;13.00;;;;;15.71;64.62;101445.72;5073327;27;45593;-66
2022/10/13 05:21:43;;;;;;;;;16.00;13.00;;;;;15.63;64.39;101443.13;5075541;28;45754;-66
2022/10/13 05:24:12;;;;;;;;;16.33;15.33;;;;;15.61;64.95;101458.09;5072338;28;45697;-67
2022/10/13 05:26:38;;;;;;;;;13.00;12.33;;;;;15.60;64.83;101448.44;5071868;28;47109;-66
2022/10/13 05:29:04;;;;;;;;;14.67;13.67;;;;;15.62;64.83;101452.81;5085287;27;45754;-67
2022/10/13 05:31:31;;;;;;;;;12.33;11.00;;;;;15.72;64.50;101452.78;5059778;28;45713;-66
2022/10/13 05:33:57;;;;;;;;;13.00;10.67;;;;;15.67;64.27;101427.25;5073680;28;45657;-66
2022/10/13 05:36:25;;;;;;;;;17.67;11.00;;;;;15.78;64.32;101436.84;5073775;28;46149;-66
2022/10/13 05:38:53;;;;;;;;;17.00;12.67;;;;;15.69;64.82;101430.75;5072120;28;45441;-66
2022/10/13 05:41:19;;;;;;;;;14.33;13.00;;;;;15.65;64.78;101434.28;5073653;28;45569;-67
2022/10/13 05:43:45;;;;;;;;;17.00;12.33;;;;;15.60;64.80;101428.19;5072047;28;45405;-67
2022/10/13 05:46:10;;;;;;;;;10.67;10.00;;;;;15.72;64.29;101429.00;5072849;28;46404;-68
2022/10/13 05:48:37;;;;;;;;;11.33;10.67;;;;;15.73;65.11;101422.81;5071650;28;45492;-67
2022/10/13 05:51:13;;;;;;;;;17.00;14.00;;;;;15.68;64.88;101417.53;5077760;27;45702;-65
2022/10/13 05:53:42;;;;;;;;;17.00;9.33;;;;;15.68;64.26;101407.88;5076391;28;45488;-66
2022/10/13 05:56:14;;;;;;;;;14.33;11.00;;;;;15.63;64.75;101399.09;5074604;28;45985;-66
2022/10/13 05:58:49;;;;;;;;;18.33;14.00;;;;;15.47;64.70;101373.69;5073391;28;45571;-67
2022/10/13 06:01:18;;;;;;;;;15.33;13.67;;;;;15.54;65.10;101401.84;5073597;28;45474;-67
2022/10/13 06:03:46;;;;;;;;;20.00;15.00;;;;;15.53;64.88;101408.00;5071764;27;45710;-67
2022/10/13 06:06:12;;;;;;;;;17.00;14.00;;;;;15.38;65.07;101402.84;5072595;27;45513;-67
2022/10/13 06:08:37;;;;;;;;;15.67;14.00;;;;;15.46;65.23;101424.75;5074732;28;45725;-67
2022/10/13 06:11:04;;;;;;;;;15.33;14.00;;;;;15.49;64.96;101422.09;5078556;27;45407;-67
2022/10/13 06:13:30;;;;;;;;;15.33;12.00;;;;;15.64;64.60;101431.69;5079703;28;45578;-69
2022/10/13 06:15:55;;;;;;;;;11.00;11.00;;;;;15.62;64.96;101413.19;5079621;28;47554;-68
2022/10/13 06:18:21;;;;;;;;;15.67;14.33;;;;;15.72;64.79;101423.72;5080869;28;45226;-69
2022/10/13 06:20:46;;;;;;;;;14.67;14.00;;;;;15.74;64.79;101421.94;5079843;27;45228;-69
2022/10/13 06:23:12;;;;;;;;;14.00;10.67;;;;;15.77;64.80;101432.47;5081210;27;45441;-67
2022/10/13 06:25:45;;;;;;;;;13.67;10.67;;;;;15.74;64.53;101411.38;5077059;27;45779;-68
2022/10/13 06:28:11;;;;;;;;;18.67;15.67;;;;;15.78;64.12;101419.28;5076716;27;45543;-67
2022/10/13 06:30:37;;;;;;;;;10.33;8.67;;;;;15.87;64.01;101423.59;5062997;27;45548;-70
2022/10/13 06:33:03;;;;;;;;;9.67;8.33;;;;;15.87;63.76;101416.56;5075623;28;45543;-69
2022/10/13 06:35:29;;;;;;;;;8.67;8.67;;;;;15.92;63.66;101410.31;5075077;28;47817;-68
2022/10/13 06:37:56;;;;;;;;;12.00;11.33;;;;;15.94;63.29;101422.63;5075150;28;45409;-70
2022/10/13 06:40:21;;;;;;;;;11.33;11.33;;;;;15.65;63.56;101389.41;5078037;28;45322;-70
2022/10/13 06:42:50;;;;;;;;;16.67;12.67;;;;;15.64;63.81;101397.34;5078707;27;45648;-69
2022/10/13 06:45:18;;;;;;;;;10.00;8.67;;;;;15.79;63.71;101417.50;5076030;28;46243;-67
2022/10/13 06:47:43;;;;;;;;;10.33;9.00;;;;;15.76;63.22;101399.06;5075700;28;45468;-67
2022/10/13 06:50:09;;;;;;;;;13.33;9.67;;;;;15.78;63.42;101403.44;5078126;27;45717;-69
2022/10/13 06:52:35;;;;;;;;;9.33;7.67;;;;;15.88;63.20;101414.78;5080727;28;46106;-67
2022/10/13 06:55:02;;;;;;;;;6.67;6.67;;;;;15.89;63.06;101408.59;5079937;28;45528;-69
2022/10/13 06:57:28;;;;;;;;;12.00;12.00;;;;;15.88;63.13;101407.72;5091097;27;45470;-66
2022/10/13 06:59:53;;;;;;;;;12.67;10.33;;;;;15.91;63.12;101414.75;5075195;28;46907;-67
2022/10/13 07:02:19;;;;;;;;;8.67;7.00;;;;;16.00;62.75;101422.59;5074999;28;45635;-67
2022/10/13 07:04:45;;;;;;;;;8.33;8.33;;;;;16.02;62.86;101426.09;5075942;28;45375;-67
2022/10/13 07:07:11;;;;;;;;;8.67;7.67;;;;;16.07;62.40;101431.34;5076119;28;45243;-69
2022/10/13 07:09:37;;;;;;;;;10.33;9.00;;;;;16.01;62.08;101421.69;5076405;28;45415;-68
2022/10/13 07:12:03;;;;;;;;;9.67;7.33;;;;;16.14;62.06;101443.59;5071240;28;45628;-67
2022/10/13 07:14:28;;;;;;;;;10.67;7.33;;;;;16.08;62.18;101420.72;5065445;28;45840;-69
2022/10/13 07:16:53;;;;;;;;;10.67;9.33;;;;;16.13;62.26;101430.38;5075862;28;45337;-67
2022/10/13 07:19:19;;;;;;;;;12.33;9.33;;;;;16.14;61.91;101422.47;5075344;27;45568;-67
2022/10/13 07:21:45;;;;;;;;;10.33;8.00;;;;;16.20;61.89;101446.16;5073195;27;45849;-68
2022/10/13 07:24:11;;;;;;;;;10.00;8.33;;;;;16.23;62.00;101453.19;5061648;27;46230;-71
2022/10/13 07:26:36;;;;;;;;;10.33;7.67;;;;;16.16;62.01;101433.00;5055402;27;45476;-68
2022/10/13 07:29:02;;;;;;;;;9.33;8.67;;;;;16.28;62.05;101452.28;5055316;27;45394;-67
2022/10/13 07:31:28;;;;;;;;;9.67;7.67;;;;;16.29;62.18;101447.84;5063637;28;45299;-68
2022/10/13 07:33:55;;;;;;;;;9.67;7.67;;;;;16.18;62.11;101428.56;5079969;27;45358;-67
2022/10/13 07:36:21;;;;;;;;;10.33;8.33;;;;;16.23;62.28;101439.97;5076031;28;45433;-68
2022/10/13 07:38:47;;;;;;;;;10.00;8.67;;;;;16.11;62.19;101420.72;5064888;27;45369;-67
2022/10/13 07:41:14;;;;;;;;;11.33;7.00;;;;;16.16;62.00;101435.63;5061583;27;45606;-69
2022/10/13 07:43:40;;;;;;;;;6.00;6.00;;;;;16.18;62.00;101432.09;5062143;27;45960;-68
2022/10/13 07:46:07;;;;;;;;;10.67;6.67;;;;;16.24;61.74;101432.03;5063303;27;45385;-67
2022/10/13 07:48:34;;;;;;;;;7.67;6.67;;;;;16.23;61.75;101432.94;5082976;27;45582;-67
2022/10/13 07:51:04;;;;;;;;;11.00;7.00;;;;;16.26;62.00;101443.47;5056509;27;45898;-66
2022/10/13 07:53:29;;;;;;;;;8.67;8.67;;;;;16.24;62.03;101444.38;5057632;27;45893;-66
2022/10/13 07:56:00;;;;;;;;;11.00;6.33;;;;;16.28;61.21;101443.47;5063616;27;45470;-68
2022/10/13 07:58:26;;;;;;;;;5.67;5.67;;;;;16.31;61.50;101446.94;5062899;27;45484;-66
2022/10/13 08:00:59;;;;;;;;;9.67;7.67;;;;;16.34;61.16;101446.03;5076409;27;45586;-67
2022/10/13 08:03:25;;;;;;;;;7.67;5.67;;;;;16.47;60.93;101452.94;5064517;27;46294;-67
2022/10/13 08:05:51;;;;;;;;;6.33;5.33;;;;;16.51;60.64;101454.69;5060911;28;45390;-68
2022/10/13 08:08:17;;;;;;;;;6.33;5.00;;;;;16.48;60.64;101444.09;5054849;27;45614;-67
2022/10/13 08:10:42;;;;;;;;;3.67;3.67;;;;;16.49;60.60;101461.75;5053711;27;45648;-66
2022/10/13 08:13:10;;;;;;;;;8.33;6.67;;;;;16.37;60.85;101434.53;5070256;27;45469;-67
2022/10/13 08:15:40;;;;;;;;;7.67;5.00;;;;;16.37;60.80;101451.28;5086753;27;45457;-66
2022/10/13 08:18:05;;;;;;;;;6.67;5.33;;;;;16.41;60.68;101460.06;5054589;28;45403;-68
2022/10/13 08:20:33;;;;;;;;;6.33;5.00;;;;;16.48;60.46;101470.56;5087157;27;45758;-66
2022/10/13 08:22:58;;;;;;;;;5.00;5.00;;;;;16.53;60.47;101465.22;5073478;27;47114;-65
2022/10/13 08:25:24;;;;;;;;;3.00;3.00;;;;;16.58;60.65;101473.09;5057924;27;45756;-67
2022/10/13 08:27:50;;;;;;;;;8.00;5.00;;;;;16.52;60.76;101461.69;5056385;27;45464;-67
2022/10/13 08:30:15;;;;;;;;;4.00;4.00;;;;;16.56;60.38;101459.88;5054907;27;45524;-66
2022/10/13 08:32:41;;;;;;;;;5.00;3.00;;;;;16.42;61.03;101460.06;5070675;28;46130;-66
2022/10/13 08:35:08;;;;;;;;;4.33;4.00;;;;;16.40;60.83;101445.09;5074143;28;45511;-67
2022/10/13 08:37:33;;;;;;;;;8.33;7.33;;;;;16.32;60.90;101443.44;5072972;28;45653;-67
2022/10/13 08:39:59;;;;;;;;;6.67;5.00;;;;;16.43;60.43;101453.00;5074662;28;45475;-65
2022/10/13 08:42:25;;;;;;;;;4.33;4.33;;;;;16.59;60.44;101462.50;5075604;28;45429;-67
2022/10/13 08:44:56;;;;;;;;;5.00;5.00;;;;;16.72;60.22;101479.09;5077929;27;45517;-67
2022/10/13 08:47:51;;;;;;;;;8.33;6.00;;;;;16.79;59.71;101483.47;5077174;28;45398;-68
2022/10/13 08:50:20;;;;;;;;;8.50;6.00;;;;;16.82;59.86;101479.91;5076985;28;45471;-66
2022/10/13 08:52:51;;;;;;;;;5.33;4.67;;;;;16.93;59.40;101476.25;5078269;28;46140;-67
2022/10/13 08:55:37;;;;;;;;;4.67;4.67;;;;;17.01;59.19;101468.19;5077976;27;45633;-66
2022/10/13 08:58:31;;;;;;;;;7.67;5.00;;;;;17.08;59.18;101466.34;5078368;28;45417;-66
2022/10/13 09:01:08;;;;;;;;;6.33;6.33;;;;;17.12;59.11;101468.94;5074575;27;45345;-66
2022/10/13 09:03:50;;;;;;;;;6.33;5.00;;;;;17.15;59.07;101474.19;5075925;28;46885;-65
2022/10/13 09:06:40;;;;;;;;;7.00;5.00;;;;;17.27;58.60;101465.19;5073519;28;45565;-66
2022/10/13 09:09:14;;;;;;;;;5.33;5.00;;;;;17.21;58.42;101456.50;5074334;28;45397;-66
2022/10/13 09:11:43;;;;;;;;;5.00;4.00;;;;;17.20;58.32;101447.66;5073890;28;45516;-66
2022/10/13 09:14:11;;;;;;;;;5.33;5.33;;;;;17.32;58.26;101447.50;5092294;27;46732;-66
2022/10/13 09:16:42;;;;;;;;;7.67;6.33;;;;;17.38;58.02;101450.03;5078108;28;45405;-65
2022/10/13 09:19:16;;;;;;;;;6.67;5.67;;;;;17.48;57.68;101466.66;5073576;28;45884;-66
2022/10/13 09:21:42;;;;;;;;;4.67;4.00;;;;;17.41;58.17;101465.00;5072347;28;45572;-67
2022/10/13 09:24:14;;;;;;;;;3.33;3.33;;;;;17.54;57.96;101471.00;5077978;27;47697;-67
2022/10/13 09:26:41;;;;;;;;;4.00;4.00;;;;;17.49;57.79;101468.44;5063616;27;45499;-65
2022/10/13 09:29:09;;;;;;;;;4.67;4.00;;;;;17.48;58.23;101463.13;5073314;27;45493;-66
2022/10/13 09:31:36;;;;;;;;;4.33;3.00;;;;;17.52;58.84;101457.78;5056203;28;45489;-65
2022/10/13 09:34:19;;;;;;;;;6.67;3.00;;;;;17.56;58.20;101462.13;5067048;28;46616;-66
2022/10/13 09:37:05;;;;;;;;;5.00;5.00;;;;;17.58;58.00;101460.34;5073681;27;45624;-66
2022/10/13 09:39:32;;;;;;;;;6.00;4.67;;;;;17.54;58.27;101448.03;5072175;27;45553;-66
2022/10/13 09:42:20;;;;;;;;;3.33;3.33;;;;;17.67;57.84;101442.53;5064430;27;45609;-66
2022/10/13 09:44:47;;;;;;;;;3.67;3.67;;;;;17.59;57.93;101422.34;5072890;28;45554;-67
2022/10/13 09:47:20;;;;;;;;;5.00;3.00;;;;;17.73;57.98;101442.44;5063790;27;45596;-66
2022/10/13 09:49:59;;;;;;;;;4.00;3.00;;;;;17.75;58.39;101438.00;5073287;27;45916;-68
2022/10/13 09:52:26;;;;;;;;;6.33;4.00;;;;;17.52;58.79;101407.47;5073337;27;45702;-67
2022/10/13 09:54:56;;;;;;;;;7.67;4.67;;;;;17.60;59.16;101436.47;5073495;27;45912;-68
2022/10/13 09:57:44;;;;;;;;;5.67;5.00;;;;;17.59;59.16;101447.97;5074825;27;45489;-68
2022/10/13 10:00:23;;;;;;;;;4.67;4.00;;;;;17.38;60.19;101455.31;5077417;27;45599;-67
2022/10/13 10:03:24;;;;;;;;;4.00;3.33;;;;;17.32;60.21;101462.47;5077246;27;45325;-67
2022/10/13 10:05:54;;;;;;;;;5.67;4.00;;;;;17.25;60.86;101458.16;5059218;27;46273;-67
2022/10/13 10:08:39;;;;;;;;;3.33;3.33;;;;;17.29;60.74;101465.19;5088356;27;45371;-67
2022/10/13 10:11:14;;;;;;;;;9.00;5.00;;;;;17.01;61.53;101448.78;5061168;28;45394;-67
2022/10/13 10:13:39;;;;;;;;;2.33;2.33;;;;;17.10;61.86;101460.13;5088427;27;45420;-66
2022/10/13 10:16:14;;;;;;;;;5.00;4.00;;;;;17.17;61.58;101450.34;5073055;28;45545;-67
2022/10/13 10:18:47;;;;;;;;;5.67;4.00;;;;;17.00;61.67;101447.94;5073146;27;45479;-66
2022/10/13 10:21:24;;;;;;;;;3.67;3.67;;;;;17.01;61.87;101462.91;5073333;27;45681;-66
2022/10/13 10:23:57;;;;;;;;;5.67;5.67;;;;;16.92;62.43;101455.09;5080865;27;45882;-66
2022/10/13 10:26:47;;;;;;;;;4.00;4.00;;;;;16.89;62.24;101450.69;5072638;27;46236;-67
2022/10/13 10:29:41;;;;;;;;;9.33;4.00;;;;;17.03;62.28;101449.66;5069465;27;45408;-67
2022/10/13 10:32:18;;;;;;;;;5.33;5.33;;;;;17.10;62.14;101451.31;5059836;28;45743;-68
2022/10/13 10:35:04;;;;;;;;;4.67;3.33;;;;;17.01;62.08;101424.97;5073225;27;45515;-68
2022/10/13 10:37:39;;;;;;;;;5.67;4.67;;;;;16.93;62.05;101439.19;5071542;28;47960;-68
2022/10/13 10:40:22;;;;;;;;;5.00;4.00;;;;;17.05;62.10;101439.94;5072507;28;45862;-69
2022/10/13 10:42:53;;;;;;;;;4.67;2.67;;;;;17.19;62.16;101443.25;5075986;27;45706;-68
2022/10/13 10:45:26;;;;;;;;;4.33;4.33;;;;;17.20;62.06;101428.25;5071313;28;45578;-67
2022/10/13 10:48:00;;;;;;;;;5.33;5.33;;;;;17.16;61.50;101406.25;5074995;28;45579;-67
2022/10/13 10:50:27;;;;;;;;;8.00;4.67;;;;;17.38;61.88;101441.22;5071149;27;45828;-66
2022/10/13 10:52:59;;;;;;;;;6.00;5.33;;;;;17.28;61.79;101435.19;5071371;28;45508;-69
2022/10/13 10:55:33;;;;;;;;;6.00;6.00;;;;;17.11;62.56;101432.78;5077570;27;45448;-69
2022/10/13 10:58:11;;;;;;;;;5.00;5.00;;;;;17.14;62.48;101438.03;5077704;27;45487;-67
2022/10/13 11:00:47;;;;;;;;;5.33;5.33;;;;;17.20;61.91;101420.31;5075724;28;45434;-68
2022/10/13 11:03:33;;;;;;;;;6.00;6.00;;;;;17.30;61.73;101430.75;5079338;28;45282;-69
2022/10/13 11:06:02;;;;;;;;;6.33;6.33;;;;;17.12;62.22;101413.34;5074738;28;45351;-67
2022/10/13 11:08:36;;;;;;;;;6.00;6.00;;;;;17.26;62.15;101430.81;5078234;27;46071;-68
2022/10/13 11:11:21;;;;;;;;;8.33;7.33;;;;;17.17;62.45;101418.56;5080263;27;45528;-68
2022/10/13 11:14:05;;;;;;;;;9.00;5.67;;;;;17.15;62.39;101415.06;5078596;28;45193;-69
2022/10/13 11:16:32;;;;;;;;;9.00;7.00;;;;;17.26;62.41;101429.03;5076108;28;45315;-67
2022/10/13 11:19:21;;;;;;;;;8.00;7.67;;;;;17.19;62.52;101422.09;5077984;28;45572;-69
2022/10/13 11:21:52;;;;;;;;;9.00;7.67;;;;;17.17;62.77;101413.28;5079538;27;45416;-69
2022/10/13 11:24:33;;;;;;;;;9.00;7.00;;;;;17.18;62.81;101420.34;5075614;28;45281;-68
2022/10/13 11:27:10;;;;;;;;;9.00;6.00;;;;;17.37;62.33;101418.31;5075537;28;45442;-69